createdAt,value
2023-05-14T00:00:17.319Z,94.4588
2023-05-14T00:01:17.321Z,94.7703
2023-05-14T00:02:17.908Z,94.5005
2023-05-14T00:03:18.917Z,93.7942
2023-05-14T00:04:19.840Z,94.9101
2023-05-14T00:05:20.084Z,95.0955
2023-05-14T00:06:20.242Z,95.3372
2023-05-14T00:07:20.556Z,95.4821
2023-05-14T00:08:21.526Z,95.1379
2023-05-14T00:09:22.686Z,94.2137
2023-05-14T00:10:23.545Z,94.7658
2023-05-14T00:11:24.233Z,95.6397
2023-05-14T00:12:24.372Z,96.0531
2023-05-14T00:13:24.660Z,96.1811
2023-05-14T00:14:24.793Z,95.3457
2023-05-14T00:15:25.832Z,94.8129
2023-05-14T00:16:27.152Z,94.7948
2023-05-14T00:17:28.023Z,95.0001
2023-05-14T00:18:28.823Z,94.9407
2023-05-14T00:20:49.517Z,95.3170
2023-05-14T00:28:56.742Z,95.5930
2023-05-14T00:30:56.408Z,95.8234
2023-05-14T00:31:56.357Z,95.9074
2023-05-14T00:32:57.275Z,95.5589
2023-05-14T00:33:58.144Z,95.4750
2023-05-14T00:34:59.520Z,95.3822
2023-05-14T00:36:00.418Z,95.4838
2023-05-14T00:37:01.105Z,95.9059
2023-05-14T00:38:01.593Z,95.5470
2023-05-14T00:39:02.495Z,94.9808
2023-05-14T00:40:03.138Z,94.8089
2023-05-14T00:41:03.512Z,94.3278
2023-05-14T00:45:05.218Z,95.1491
2023-05-14T00:46:05.498Z,95.4213
2023-05-14T00:47:07.273Z,95.5986
2023-05-14T00:48:07.938Z,95.3417
2023-05-14T00:49:08.270Z,95.2534
2023-05-14T00:50:09.275Z,95.4914
2023-05-14T00:51:09.862Z,95.5411
2023-05-14T00:52:09.992Z,95.5968
2023-05-14T00:53:10.149Z,95.8125
2023-05-14T00:54:11.656Z,96.0938
2023-05-14T01:00:16.664Z,95.0596
2023-05-14T01:05:18.474Z,95.1544
2023-05-14T01:14:22.885Z,95.3215
2023-05-14T01:15:23.354Z,95.6551
2023-05-14T01:16:23.838Z,95.6833
2023-05-14T01:17:24.969Z,95.1135
2023-05-14T01:18:24.991Z,95.3957
2023-05-14T01:19:26.197Z,94.9555
2023-05-14T01:20:27.644Z,94.4353
2023-05-14T01:21:27.913Z,94.2334
2023-05-14T01:22:29.119Z,94.3993
2023-05-14T01:35:33.132Z,94.4726
2023-05-14T01:37:33.275Z,94.6929
2023-05-14T01:38:34.218Z,94.6880
2023-05-14T01:40:35.200Z,94.8696
2023-05-14T01:41:36.115Z,95.3421
2023-05-14T01:42:37.250Z,95.2822
2023-05-14T01:43:37.475Z,95.6435
2023-05-14T01:44:37.841Z,95.8370
2023-05-14T01:51:41.113Z,95.1450
2023-05-14T01:59:46.509Z,95.4924
2023-05-14T02:00:46.550Z,95.5660
2023-05-14T02:02:49.765Z,95.7895
2023-05-14T02:03:50.147Z,95.8166
2023-05-14T02:05:53.668Z,95.8054
2023-05-14T02:07:54.512Z,96.3482
2023-05-14T02:08:54.857Z,96.5224
2023-05-14T02:09:56.006Z,96.2859
2023-05-14T02:10:57.047Z,96.1180
2023-05-14T02:11:57.378Z,95.7009
2023-05-14T02:12:57.452Z,95.5393
2023-05-14T02:13:57.829Z,95.3816
2023-05-14T02:14:59.042Z,95.9347
2023-05-14T02:20:02.134Z,95.9644
2023-05-14T02:21:02.938Z,96.0308
2023-05-14T02:22:03.789Z,95.8060
2023-05-14T02:23:03.908Z,95.4288
2023-05-14T02:24:05.174Z,95.7671
2023-05-14T02:25:05.860Z,95.7497
2023-05-14T02:26:06.912Z,96.0078
2023-05-14T02:35:15.101Z,95.3519
2023-05-14T02:36:14.541Z,95.2858
2023-05-14T02:37:14.888Z,95.5180
2023-05-14T02:38:15.533Z,95.6917
2023-05-14T02:39:15.890Z,95.7270
2023-05-14T02:40:16.811Z,95.8343
2023-05-14T02:41:18.317Z,96.1871
2023-05-14T02:42:19.274Z,96.5652
2023-05-14T02:44:20.862Z,96.8059
2023-05-14T02:45:21.324Z,96.9653
2023-05-14T02:46:21.614Z,96.8520
2023-05-14T02:47:22.696Z,96.8612
2023-05-14T02:48:23.393Z,96.8568
2023-05-14T02:49:24.580Z,96.8411
2023-05-14T02:50:25.273Z,96.9645
2023-05-14T02:51:25.468Z,97.0701
2023-05-14T02:52:26.180Z,97.0612
2023-05-14T02:53:26.880Z,96.9371
2023-05-14T02:54:27.433Z,96.9223
2023-05-14T02:55:28.465Z,96.7190
2023-05-14T02:56:29.219Z,96.9025
2023-05-14T02:57:29.320Z,96.9243
2023-05-14T02:58:30.227Z,96.8704
2023-05-14T02:59:30.507Z,96.6854
2023-05-14T03:00:30.539Z,96.7813
2023-05-14T03:01:31.345Z,96.7274
2023-05-14T03:02:32.162Z,96.7930
2023-05-14T03:11:42.262Z,96.6787
2023-05-14T03:13:41.998Z,96.7669
2023-05-14T03:14:43.517Z,96.7803
2023-05-14T03:15:44.774Z,96.4611
2023-05-14T03:16:45.620Z,96.8143
2023-05-14T03:17:46.821Z,96.9545
2023-05-14T03:21:48.335Z,97.0736
2023-05-14T03:22:49.175Z,97.2443
2023-05-14T03:23:49.930Z,97.5375
2023-05-14T03:24:50.183Z,97.5131
2023-05-14T03:25:50.538Z,97.4635
2023-05-14T03:26:51.920Z,97.5272
2023-05-14T03:31:55.725Z,98.0711
2023-05-14T03:42:02.944Z,98.9347
2023-05-14T03:43:03.437Z,98.9669
2023-05-14T03:44:03.657Z,98.9757
2023-05-14T03:45:04.532Z,98.9047
2023-05-14T03:46:05.442Z,98.8410
2023-05-14T03:48:06.331Z,98.8732
2023-05-14T03:49:06.941Z,98.9723
2023-05-14T03:51:06.722Z,99.0515
2023-05-14T03:52:10.597Z,99.1048
2023-05-14T03:54:09.318Z,99.1637
2023-05-14T04:02:13.972Z,98.7713
2023-05-14T04:03:14.707Z,98.6037
2023-05-14T04:04:15.790Z,98.5913
2023-05-14T04:05:17.190Z,98.6972
2023-05-14T04:07:18.093Z,98.6147
2023-05-14T04:08:19.112Z,98.3055
2023-05-14T04:10:20.317Z,98.1854
2023-05-14T04:11:20.547Z,97.8807
2023-05-14T04:12:20.559Z,97.8206
2023-05-14T04:13:22.097Z,97.9342
2023-05-14T04:14:22.815Z,98.0545
2023-05-14T04:18:24.553Z,97.3778
2023-05-14T04:19:24.650Z,97.4286
2023-05-14T04:20:24.886Z,96.4682
2023-05-14T04:21:26.125Z,96.5423
2023-05-14T04:22:26.361Z,96.1719
2023-05-14T04:23:26.604Z,96.4571
2023-05-14T04:24:27.786Z,96.8699
2023-05-14T04:30:32.613Z,95.9503
2023-05-14T04:31:34.567Z,95.1508
2023-05-14T04:35:35.708Z,95.6841
2023-05-14T04:36:36.442Z,95.7375
2023-05-14T04:37:37.129Z,95.3179
2023-05-14T04:38:37.312Z,95.1836
2023-05-14T04:43:40.252Z,95.0782
2023-05-14T04:49:44.212Z,93.7876
2023-05-14T04:50:45.274Z,93.4237
2023-05-14T04:51:46.112Z,93.2076
2023-05-14T04:52:46.802Z,93.3532
2023-05-14T04:53:47.762Z,94.1346
2023-05-14T04:54:47.508Z,94.4153
2023-05-14T04:55:48.448Z,94.4631
2023-05-14T05:01:53.309Z,93.7736
2023-05-14T05:13:02.079Z,91.2037
2023-05-14T05:14:02.749Z,90.6277
2023-05-14T05:16:02.808Z,91.7876
2023-05-14T05:17:03.271Z,91.9116
2023-05-14T05:18:04.807Z,91.7979
2023-05-14T05:19:05.908Z,91.2124
2023-05-14T05:20:06.790Z,91.2862
2023-05-14T05:21:07.254Z,91.2800
2023-05-14T05:28:10.863Z,90.1024
2023-05-14T05:29:11.186Z,89.7142
2023-05-14T05:30:11.783Z,89.5069
2023-05-14T05:31:13.169Z,90.0908
2023-05-14T05:33:13.229Z,89.3330
2023-05-14T05:35:13.941Z,88.9637
2023-05-14T05:36:14.593Z,89.2552
2023-05-14T05:37:15.910Z,89.0397
2023-05-14T05:51:27.929Z,87.7657
2023-05-14T05:52:28.720Z,87.5863
2023-05-14T05:53:29.423Z,87.1212
2023-05-14T05:54:30.054Z,86.8380
2023-05-14T05:55:31.285Z,86.9204
2023-05-14T05:56:32.560Z,87.0434
2023-05-14T05:57:32.623Z,86.4690
2023-05-14T05:58:33.280Z,85.0270
2023-05-14T05:59:34.007Z,85.4900
2023-05-14T06:09:38.585Z,89.1468
2023-05-14T06:10:39.137Z,89.6372
2023-05-14T06:11:39.382Z,90.0430
2023-05-14T06:12:39.965Z,91.0982
2023-05-14T06:13:40.738Z,91.1509
2023-05-14T06:14:41.188Z,90.5661
2023-05-14T06:15:43.053Z,91.0178
2023-05-14T06:16:44.407Z,90.8082
2023-05-14T06:17:44.854Z,90.6724
2023-05-14T06:18:45.803Z,91.4812
2023-05-14T06:19:46.352Z,91.3523
2023-05-14T06:20:46.527Z,90.3735
2023-05-14T06:22:49.843Z,90.7089
2023-05-14T06:23:50.302Z,90.7744
2023-05-14T06:24:50.358Z,90.6199
2023-05-14T06:26:54.662Z,90.7406
2023-05-14T06:27:55.006Z,90.8794
2023-05-14T06:28:55.091Z,91.0752
2023-05-14T06:30:57.474Z,91.7265
2023-05-14T06:31:57.812Z,91.0195
2023-05-14T06:34:01.022Z,90.9476
2023-05-14T06:35:02.108Z,90.7066
2023-05-14T06:37:02.866Z,90.0479
2023-05-14T06:38:02.934Z,90.1776
2023-05-14T06:39:03.690Z,90.4525
2023-05-14T06:40:05.186Z,89.8639
2023-05-14T06:41:05.350Z,90.0284
2023-05-14T06:43:07.611Z,90.5346
2023-05-14T06:48:17.027Z,90.7681
2023-05-14T06:49:17.961Z,90.5907
2023-05-14T06:50:18.883Z,91.0354
2023-05-14T06:54:38.691Z,91.2488
2023-05-14T06:55:39.799Z,90.7927
2023-05-14T06:56:40.053Z,90.3347
2023-05-14T06:57:41.024Z,90.5442
2023-05-14T06:58:42.843Z,90.8961
2023-05-14T07:00:42.978Z,91.2747
2023-05-14T07:01:44.088Z,90.1768
2023-05-14T07:02:45.032Z,90.4722
2023-05-14T07:09:26.055Z,92.4764
2023-05-14T07:10:28.654Z,92.4864
2023-05-14T07:18:08.915Z,93.0777
2023-05-14T07:19:09.746Z,93.3858
2023-05-14T07:20:11.216Z,93.3360
2023-05-14T07:21:11.335Z,93.9370
2023-05-14T07:22:12.969Z,93.7075
2023-05-14T07:23:13.756Z,93.5878
2023-05-14T07:25:14.655Z,93.0351
2023-05-14T07:26:14.711Z,92.5972
2023-05-14T07:27:15.726Z,92.7407
2023-05-14T07:28:17.188Z,92.5858
2023-05-14T07:29:17.237Z,91.9030
2023-05-14T07:30:17.693Z,90.6011
2023-05-14T07:31:19.364Z,90.1225
2023-05-14T07:32:20.246Z,88.9570
2023-05-14T07:36:21.477Z,86.7274
2023-05-14T07:38:22.457Z,87.1432
2023-05-14T07:39:22.758Z,87.6008
2023-05-14T07:40:23.081Z,88.6889
2023-05-14T07:46:25.179Z,85.5066
2023-05-14T07:47:26.518Z,84.3471
2023-05-14T07:48:27.015Z,82.4242
2023-05-14T07:49:27.935Z,81.7323
2023-05-14T07:50:29.142Z,80.4538
2023-05-14T07:51:30.206Z,80.4917
2023-05-14T07:52:31.957Z,78.8569
2023-05-14T07:53:32.585Z,78.4615
2023-05-14T07:54:33.388Z,76.8919
2023-05-14T07:55:34.145Z,77.9586
2023-05-14T07:56:46.949Z,75.3799
2023-05-14T08:06:54.103Z,79.3356
2023-05-14T08:10:56.994Z,80.6425
2023-05-14T08:13:57.140Z,78.0367
2023-05-14T08:14:57.616Z,79.0348
2023-05-14T08:15:57.624Z,78.1899
2023-05-14T08:16:58.854Z,80.6712
2023-05-14T08:17:59.454Z,81.0944
2023-05-14T08:19:00.497Z,82.9887
2023-05-14T08:20:01.839Z,83.0499
2023-05-14T08:21:05.408Z,82.3234
2023-05-14T08:22:06.196Z,77.7971
2023-05-14T08:23:07.412Z,79.4109
2023-05-14T08:25:10.066Z,77.3801
2023-05-14T08:26:10.436Z,78.5094
2023-05-14T08:29:46.208Z,84.9242
2023-05-14T08:30:46.630Z,83.0044
2023-05-14T08:31:46.858Z,82.8627
2023-05-14T08:32:47.489Z,83.1822
2023-05-14T08:33:48.502Z,83.6705
2023-05-14T08:34:50.003Z,82.5910
2023-05-14T08:36:55.195Z,82.3816
2023-05-14T08:37:55.678Z,81.9938
2023-05-14T08:38:56.018Z,83.0742
2023-05-14T08:39:56.454Z,82.0902
2023-05-14T08:40:56.939Z,81.3501
2023-05-14T08:41:57.801Z,79.3792
2023-05-14T08:42:58.951Z,79.2751
2023-05-14T08:43:59.736Z,80.3204
2023-05-14T08:45:00.781Z,79.2417
2023-05-14T08:46:01.897Z,80.0571
2023-05-14T08:47:02.246Z,80.0828
2023-05-14T08:48:04.863Z,79.1258
2023-05-14T08:50:03.718Z,80.6745
2023-05-14T08:51:04.191Z,81.6798
2023-05-14T08:52:04.948Z,80.8889
2023-05-14T08:53:05.528Z,79.2247
2023-05-14T08:54:05.723Z,77.7290
2023-05-14T08:55:06.651Z,77.0194
2023-05-14T08:56:06.526Z,77.4030
2023-05-14T08:57:07.012Z,76.4196
2023-05-14T09:05:14.789Z,74.1215
2023-05-14T09:06:15.580Z,71.3171
2023-05-14T09:07:16.249Z,73.3914
2023-05-14T09:09:04.183Z,73.9953
2023-05-14T09:10:04.608Z,76.9287
2023-05-14T09:11:06.628Z,74.6911
2023-05-14T09:12:07.477Z,73.6586
2023-05-14T09:13:08.683Z,73.3319
2023-05-14T09:14:09.880Z,69.4477
2023-05-14T09:15:10.941Z,75.1418
2023-05-14T09:16:12.466Z,74.0552
2023-05-14T09:17:12.255Z,75.2044
2023-05-14T09:18:13.495Z,74.3175
2023-05-14T09:19:14.227Z,72.6763
2023-05-14T09:20:15.167Z,73.9928
2023-05-14T09:24:04.407Z,77.8283
2023-05-14T09:30:09.629Z,78.9614
2023-05-14T09:31:09.740Z,79.0846
2023-05-14T09:33:09.799Z,80.6521
2023-05-14T09:35:10.686Z,81.7576
2023-05-14T09:36:11.969Z,81.3127
2023-05-14T09:37:12.892Z,79.5273
2023-05-14T09:43:22.971Z,77.4706
2023-05-14T09:46:26.617Z,76.5297
2023-05-14T09:47:26.917Z,76.4886
2023-05-14T09:48:26.985Z,77.6289
2023-05-14T09:49:27.810Z,76.5437
2023-05-14T09:51:29.033Z,73.8322
2023-05-14T09:52:29.700Z,75.8775
2023-05-14T09:53:30.756Z,77.6508
2023-05-14T09:57:58.389Z,80.6798
2023-05-14T09:58:58.897Z,81.2949
2023-05-14T10:00:00.001Z,81.7799
2023-05-14T10:01:01.078Z,81.5085
2023-05-14T10:02:02.260Z,83.0550
2023-05-14T10:03:02.262Z,81.9548
2023-05-14T10:04:04.057Z,81.7767
2023-05-14T10:05:05.262Z,81.5965
2023-05-14T10:06:05.399Z,80.7790
2023-05-14T10:07:06.413Z,81.6871
2023-05-14T10:08:06.792Z,83.5884
2023-05-14T10:09:07.405Z,83.1841
2023-05-14T10:10:08.514Z,82.3642
2023-05-14T10:12:09.651Z,82.4289
2023-05-14T10:13:10.601Z,81.5792
2023-05-14T10:16:41.015Z,81.0321
2023-05-14T10:17:41.149Z,81.6033
2023-05-14T10:18:42.303Z,81.1703
2023-05-14T10:19:43.166Z,80.3828
2023-05-14T10:20:44.306Z,80.4439
2023-05-14T10:21:45.144Z,81.4214
2023-05-14T10:22:45.408Z,79.3137
2023-05-14T10:29:25.077Z,79.7972
2023-05-14T10:30:26.446Z,80.9629
2023-05-14T10:31:26.430Z,80.7377
2023-05-14T10:32:27.166Z,81.4579
2023-05-14T10:33:27.679Z,82.0062
2023-05-14T10:34:29.008Z,81.9627
2023-05-14T10:35:30.244Z,82.8524
2023-05-14T10:36:31.102Z,81.6429
2023-05-14T10:37:31.752Z,82.1576
2023-05-14T10:42:20.660Z,79.2257
2023-05-14T10:51:07.710Z,78.5088
2023-05-14T10:52:07.749Z,76.3225
2023-05-14T10:53:08.717Z,76.3865
2023-05-14T10:54:09.123Z,76.3672
2023-05-14T10:55:10.404Z,73.9082
2023-05-14T10:56:10.629Z,76.2601
2023-05-14T10:57:11.346Z,76.7261
2023-05-14T10:58:11.531Z,77.4184
2023-05-14T10:59:12.615Z,76.2326
2023-05-14T11:00:13.273Z,76.1720
2023-05-14T11:01:13.329Z,75.1706
2023-05-14T11:02:15.901Z,75.1073
2023-05-14T11:06:40.378Z,71.8611
2023-05-14T11:10:41.680Z,64.5300
2023-05-14T11:11:42.771Z,64.3596
2023-05-14T11:12:43.440Z,64.7109
2023-05-14T11:13:44.244Z,66.3571
2023-05-14T11:18:48.534Z,68.2137
2023-05-14T11:19:50.461Z,69.9698
2023-05-14T11:31:31.454Z,79.3042
2023-05-14T11:32:31.719Z,79.2583
2023-05-14T11:33:33.341Z,79.2922
2023-05-14T11:34:33.322Z,78.3214
2023-05-14T11:35:34.284Z,77.9750
2023-05-14T11:36:36.277Z,77.5489
2023-05-14T11:38:36.441Z,76.7404
2023-05-14T11:41:39.737Z,73.8728
2023-05-14T11:43:45.782Z,73.4549
2023-05-14T11:48:53.674Z,73.8729
2023-05-14T11:49:53.924Z,74.6269
2023-05-14T11:51:29.098Z,74.5664
2023-05-14T11:53:33.493Z,75.1321
2023-05-14T11:55:31.290Z,73.2686
2023-05-14T11:58:32.230Z,72.4643
2023-05-14T11:59:33.201Z,72.2723
2023-05-14T12:01:34.298Z,72.6403
2023-05-14T12:02:35.234Z,70.5354
2023-05-14T12:03:35.821Z,70.1388
2023-05-14T12:04:35.482Z,70.1193
2023-05-14T12:05:36.148Z,71.3579
2023-05-14T12:06:38.167Z,70.6428
2023-05-14T12:07:37.924Z,71.9486
2023-05-14T12:12:40.472Z,75.5440
2023-05-14T12:13:41.867Z,75.2345
2023-05-14T12:14:42.592Z,75.9852
2023-05-14T12:21:54.434Z,82.2948
2023-05-14T12:22:55.209Z,82.6585
2023-05-14T12:23:55.923Z,83.2596
2023-05-14T12:24:57.145Z,83.7865
2023-05-14T12:25:57.719Z,83.7861
2023-05-14T12:26:58.028Z,84.0767
2023-05-14T12:27:58.380Z,84.3945
2023-05-14T12:28:59.170Z,84.5197
2023-05-14T12:30:09.203Z,85.2507
2023-05-14T12:31:00.486Z,85.8353
2023-05-14T12:33:02.928Z,86.1850
2023-05-14T12:34:04.087Z,86.3728
2023-05-14T12:36:20.746Z,87.5166
2023-05-14T12:37:07.549Z,87.7308
2023-05-14T12:38:07.682Z,88.1419
2023-05-14T12:39:08.894Z,88.7765
2023-05-14T12:40:10.353Z,88.8617
2023-05-14T12:41:11.491Z,89.2561
2023-05-14T12:42:12.172Z,89.0778
2023-05-14T12:43:12.506Z,89.6919
2023-05-14T12:45:13.720Z,90.3671
2023-05-14T12:49:17.886Z,89.0009
2023-05-14T12:51:19.740Z,88.3755
2023-05-14T12:53:24.058Z,90.7000
2023-05-14T12:56:25.357Z,89.5923
2023-05-14T12:58:26.328Z,89.9563
2023-05-14T12:59:26.587Z,90.4387
2023-05-14T13:00:26.922Z,90.1277
2023-05-14T13:01:27.608Z,90.2868
2023-05-14T13:02:28.637Z,89.4068
2023-05-14T13:03:29.138Z,88.2193
2023-05-14T13:04:30.438Z,87.2918
2023-05-14T13:05:31.541Z,88.5993
2023-05-14T13:06:32.491Z,87.9806
2023-05-14T13:07:32.957Z,87.8850
2023-05-14T13:08:33.400Z,87.7750
2023-05-14T13:09:33.980Z,88.0336
2023-05-14T13:10:34.598Z,87.8088
2023-05-14T13:17:42.272Z,81.7236
2023-05-14T13:19:42.870Z,83.8159
2023-05-14T13:20:43.482Z,83.3688
2023-05-14T13:21:44.105Z,82.8564
2023-05-14T13:22:44.853Z,83.2701
2023-05-14T13:24:46.768Z,82.6519
2023-05-14T13:27:47.396Z,82.1823
2023-05-14T13:29:48.274Z,81.5054
2023-05-14T13:36:53.498Z,81.1635
2023-05-14T13:37:54.516Z,80.9230
2023-05-14T13:38:55.648Z,80.7644
2023-05-14T13:39:55.921Z,80.3589
2023-05-14T13:40:56.322Z,80.8919
2023-05-14T13:41:56.628Z,80.0641
2023-05-14T13:42:57.701Z,79.8777
2023-05-14T13:43:58.388Z,78.6177
2023-05-14T13:45:58.741Z,77.2232
2023-05-14T13:46:58.944Z,77.6204
2023-05-14T13:47:59.526Z,76.8425
2023-05-14T13:48:59.625Z,77.7537
2023-05-14T13:50:00.865Z,76.3568
2023-05-14T13:51:02.019Z,76.0771
2023-05-14T13:52:02.447Z,78.2891
2023-05-14T13:53:03.301Z,79.5122
2023-05-14T13:54:04.301Z,80.2320
2023-05-14T13:55:04.976Z,79.5422
2023-05-14T13:56:05.321Z,79.3247
2023-05-14T13:57:06.434Z,77.9263
2023-05-14T13:58:06.861Z,76.2465
2023-05-14T13:59:06.689Z,74.1782
2023-05-14T14:00:07.354Z,73.0277
2023-05-14T14:01:07.701Z,73.8542
2023-05-14T14:03:08.775Z,71.6379
2023-05-14T14:04:09.603Z,69.7832
2023-05-14T14:05:10.144Z,69.5419
2023-05-14T14:06:10.472Z,69.8643
2023-05-14T14:07:11.301Z,70.6425
2023-05-14T14:08:23.473Z,69.8163
2023-05-14T14:09:19.039Z,68.9983
2023-05-14T14:12:20.772Z,72.0862
2023-05-14T14:13:21.778Z,72.3755
2023-05-14T14:14:20.932Z,72.7574
2023-05-14T14:15:20.937Z,71.7827
2023-05-14T14:16:22.129Z,72.0230
2023-05-14T14:17:23.109Z,69.4373
2023-05-14T14:25:28.709Z,69.0858
2023-05-14T14:26:28.718Z,68.6711
2023-05-14T14:27:29.449Z,70.1901
2023-05-14T14:28:29.759Z,70.2631
2023-05-14T14:29:29.853Z,70.5442
2023-05-14T14:30:30.958Z,71.8033
2023-05-14T14:31:31.860Z,71.7769
2023-05-14T14:32:33.058Z,70.8826
2023-05-14T14:33:33.480Z,71.9650
2023-05-14T14:34:34.567Z,72.3450
2023-05-14T14:35:35.329Z,73.1047
2023-05-14T14:36:35.785Z,73.2915
2023-05-14T14:37:37.340Z,72.5592
2023-05-14T14:44:39.665Z,74.7618
2023-05-14T14:45:40.014Z,73.8976
2023-05-14T14:46:41.032Z,74.0568
2023-05-14T14:47:42.171Z,74.6202
2023-05-14T14:48:42.501Z,75.2014
2023-05-14T14:49:43.372Z,75.4351
2023-05-14T14:50:43.824Z,75.6052
2023-05-14T14:51:45.472Z,77.2811
2023-05-14T14:52:46.742Z,79.9474
2023-05-14T14:53:47.152Z,81.2038
2023-05-14T14:54:47.356Z,83.1421
2023-05-14T14:55:48.613Z,83.3711
2023-05-14T14:56:49.833Z,84.4568
2023-05-14T14:57:51.061Z,85.2378
2023-05-14T14:58:51.011Z,86.6426
2023-05-14T14:59:51.059Z,87.0963
2023-05-14T15:00:52.163Z,88.4271
2023-05-14T15:01:52.667Z,88.1807
2023-05-14T15:02:52.930Z,89.9165
2023-05-14T15:03:54.010Z,88.8823
2023-05-14T15:04:54.753Z,91.0297
2023-05-14T15:05:55.498Z,89.9896
2023-05-14T15:06:55.902Z,89.8675
2023-05-14T15:07:56.360Z,89.7750
2023-05-14T15:08:57.465Z,93.4330
2023-05-14T15:09:58.014Z,95.5448
2023-05-14T15:10:58.208Z,95.2522
2023-05-14T15:11:58.437Z,95.6685
2023-05-14T15:12:58.534Z,95.3153
2023-05-14T15:13:59.154Z,95.5072
2023-05-14T15:14:59.615Z,95.6758
2023-05-14T15:16:00.701Z,95.3702
2023-05-14T15:17:01.240Z,95.9358
2023-05-14T15:18:02.418Z,96.4029
2023-05-14T15:19:02.691Z,96.7624
2023-05-14T15:20:03.305Z,96.8315
2023-05-14T15:21:04.445Z,96.8447
2023-05-14T15:22:04.440Z,96.5648
2023-05-14T15:23:05.124Z,96.1611
2023-05-14T15:24:05.786Z,95.1131
2023-05-14T15:25:05.997Z,95.3270
2023-05-14T15:26:06.025Z,95.8653
2023-05-14T15:27:07.096Z,95.9984
2023-05-14T15:28:08.216Z,95.8746
2023-05-14T15:29:08.455Z,96.6355
2023-05-14T15:30:09.203Z,96.5933
2023-05-14T15:31:10.253Z,96.5661
2023-05-14T15:32:11.610Z,96.8434
2023-05-14T15:33:12.387Z,95.4395
2023-05-14T15:34:14.053Z,94.1972
2023-05-14T15:35:13.751Z,89.9284
2023-05-14T15:36:14.213Z,88.0129
2023-05-14T15:37:14.290Z,89.2123
2023-05-14T15:38:15.311Z,92.4579
2023-05-14T15:39:15.696Z,94.3571
2023-05-14T15:40:16.000Z,91.8988
2023-05-14T15:41:17.366Z,93.6160
2023-05-14T15:43:18.195Z,90.3392
2023-05-14T15:45:20.945Z,92.8959
2023-05-14T15:46:22.054Z,93.9291
2023-05-14T15:47:22.791Z,91.9537
2023-05-14T15:48:23.848Z,92.8147
2023-05-14T15:49:24.193Z,93.1469
2023-05-14T15:50:25.276Z,94.6836
2023-05-14T15:51:25.122Z,95.1807
2023-05-14T15:52:26.116Z,95.2175
2023-05-14T15:53:26.977Z,95.3883
2023-05-14T15:54:27.835Z,94.9825
2023-05-14T15:55:28.098Z,94.6680
2023-05-14T15:56:28.931Z,95.2325
2023-05-14T15:57:29.790Z,94.6878
2023-05-14T15:58:29.856Z,94.8647
2023-05-14T15:59:30.890Z,94.2145
2023-05-14T16:00:32.024Z,94.4149
2023-05-14T16:01:32.556Z,94.0279
2023-05-14T16:02:33.449Z,94.2836
2023-05-14T16:03:34.067Z,94.6120
2023-05-14T16:04:34.371Z,93.8326
2023-05-14T16:05:35.517Z,92.7329
2023-05-14T16:06:36.278Z,92.8947
2023-05-14T16:07:37.534Z,93.3773
2023-05-14T16:08:38.275Z,93.6644
2023-05-14T16:09:38.778Z,94.0665
2023-05-14T16:10:39.668Z,92.6095
2023-05-14T16:11:39.885Z,92.4865
2023-05-14T16:12:40.790Z,92.9300
2023-05-14T16:14:42.079Z,95.1588
2023-05-14T16:16:42.776Z,94.9080
2023-05-14T16:17:44.504Z,92.4219
2023-05-14T16:18:45.368Z,93.4512
2023-05-14T16:19:45.783Z,93.7539
2023-05-14T16:20:46.731Z,94.3473
2023-05-14T16:21:47.211Z,96.5936
2023-05-14T16:22:47.841Z,97.5024
2023-05-14T16:23:48.648Z,97.6602
2023-05-14T16:24:49.149Z,97.4267
2023-05-14T16:25:50.498Z,97.6873
2023-05-14T16:27:50.759Z,95.9604
2023-05-14T16:28:52.335Z,96.5660
2023-05-14T16:29:52.762Z,97.4400
2023-05-14T16:30:53.926Z,97.6863
2023-05-14T16:31:54.946Z,97.9006
2023-05-14T16:32:56.051Z,98.0407
2023-05-14T16:33:57.194Z,98.1292
2023-05-14T16:34:57.652Z,98.2502
2023-05-14T16:35:58.169Z,98.2929
2023-05-14T16:38:00.089Z,98.2090
2023-05-14T16:39:07.314Z,98.3064
2023-05-14T16:40:03.325Z,98.6588
2023-05-14T16:41:03.843Z,98.7355
2023-05-14T16:42:03.932Z,98.7880
2023-05-14T16:43:04.809Z,98.8396
2023-05-14T16:44:05.044Z,98.9908
2023-05-14T16:45:05.805Z,99.1110
2023-05-14T16:46:06.497Z,99.1059
2023-05-14T16:47:07.231Z,99.0597
2023-05-14T16:49:08.146Z,98.9057
2023-05-14T16:52:09.814Z,97.7053
2023-05-14T16:53:10.128Z,96.7055
2023-05-14T16:54:10.276Z,97.4037
2023-05-14T16:57:13.330Z,97.8629
2023-05-14T16:58:14.193Z,97.9882
2023-05-14T16:59:15.334Z,98.2801
2023-05-14T17:00:16.442Z,98.3762
2023-05-14T17:01:17.833Z,98.4350
2023-05-14T17:02:18.638Z,98.5852
2023-05-14T17:03:18.681Z,98.7098
2023-05-14T17:04:19.321Z,98.8253
2023-05-14T17:05:19.690Z,98.9524
2023-05-14T17:06:20.564Z,99.1374
2023-05-14T17:07:21.362Z,99.0234
2023-05-14T17:08:22.681Z,98.8129
2023-05-14T17:09:24.115Z,98.9800
2023-05-14T17:10:24.450Z,99.1562
2023-05-14T17:11:25.543Z,99.2360
2023-05-14T17:12:25.746Z,99.2599
2023-05-14T17:15:28.129Z,99.4229
2023-05-14T17:16:27.870Z,99.4899
2023-05-14T17:17:28.761Z,99.4627
2023-05-14T17:19:29.431Z,99.1749
2023-05-14T17:20:29.911Z,99.2899
2023-05-14T17:22:32.389Z,99.0406
2023-05-14T17:23:32.565Z,99.2365
2023-05-14T17:24:32.630Z,99.1452
2023-05-14T17:25:33.398Z,99.2278
2023-05-14T17:27:36.861Z,99.0537
2023-05-14T17:28:38.013Z,99.2128
2023-05-14T17:29:39.351Z,99.3016
2023-05-14T17:30:39.416Z,99.2970
2023-05-14T17:31:40.269Z,99.3955
2023-05-14T17:32:41.621Z,99.4732
2023-05-14T17:33:42.600Z,99.4839
2023-05-14T17:34:43.595Z,99.3952
2023-05-14T17:35:44.463Z,99.2906
2023-05-14T17:36:44.371Z,99.3587
2023-05-14T17:37:45.120Z,99.3669
2023-05-14T17:38:47.508Z,99.4172
2023-05-14T17:48:53.030Z,98.1373
2023-05-14T17:49:53.201Z,98.3365
2023-05-14T17:50:54.249Z,98.4650
2023-05-14T17:51:55.167Z,98.8956
2023-05-14T17:52:56.789Z,99.1463
2023-05-14T17:53:56.383Z,99.2407
2023-05-14T17:54:57.246Z,99.2467
2023-05-14T17:55:57.346Z,99.3048
2023-05-14T17:56:58.110Z,99.3716
2023-05-14T17:57:59.321Z,99.3745
2023-05-14T17:59:00.055Z,99.1751
2023-05-14T18:00:01.183Z,99.0310
2023-05-14T18:01:01.301Z,99.1223
2023-05-14T18:02:01.942Z,99.1038
2023-05-14T18:03:02.360Z,99.1658
2023-05-14T18:04:02.549Z,99.2404
2023-05-14T18:05:02.998Z,99.2884
2023-05-14T18:06:03.592Z,99.2566
2023-05-14T18:07:04.522Z,99.1612
2023-05-14T18:08:05.957Z,99.2355
2023-05-14T18:09:07.105Z,99.4091
2023-05-14T18:10:07.167Z,99.2432
2023-05-14T18:11:07.917Z,98.9762
2023-05-14T18:12:08.697Z,98.9747
2023-05-14T18:13:09.675Z,99.0342
2023-05-14T18:14:11.055Z,98.9864
2023-05-14T18:15:11.328Z,99.0145
2023-05-14T18:16:12.015Z,98.9732
2023-05-14T18:17:12.367Z,98.3317
2023-05-14T18:18:12.655Z,98.8201
2023-05-14T18:19:13.387Z,98.9724
2023-05-14T18:20:13.487Z,99.0730
2023-05-14T18:21:14.830Z,99.1643
2023-05-14T18:23:15.340Z,99.0092
2023-05-14T18:24:16.039Z,98.8398
2023-05-14T18:25:16.636Z,98.7178
2023-05-14T18:26:18.008Z,98.9341
2023-05-14T18:28:19.014Z,99.1098
2023-05-14T18:29:19.918Z,99.1476
2023-05-14T18:30:20.327Z,99.0106
2023-05-14T18:31:21.041Z,99.0835
2023-05-14T18:32:21.202Z,98.9954
2023-05-14T18:42:12.675Z,100.0000
2023-05-14T18:43:13.708Z,100.0000
2023-05-14T18:44:13.862Z,100.0000
2023-05-14T18:45:14.512Z,100.0000
2023-05-14T18:46:16.056Z,100.0000
2023-05-14T18:47:17.084Z,100.0000
2023-05-14T18:48:17.150Z,100.0000
2023-05-14T18:49:18.397Z,100.0000
2023-05-14T18:50:19.269Z,100.0000
2023-05-14T18:51:19.374Z,100.0000
2023-05-14T18:52:20.435Z,100.0000
2023-05-14T18:53:22.302Z,100.0000
2023-05-14T18:58:26.618Z,100.0000
2023-05-14T18:59:26.904Z,100.0000
2023-05-14T19:01:27.801Z,100.0000
2023-05-14T19:04:33.135Z,100.0000
2023-05-14T19:05:31.141Z,100.0000
2023-05-14T19:11:35.279Z,100.0000
2023-05-14T19:12:35.509Z,100.0000
2023-05-14T19:14:38.572Z,100.0000
2023-05-14T19:15:38.721Z,100.0000
2023-05-14T19:16:39.995Z,100.0000
2023-05-14T19:17:42.078Z,100.0000
2023-05-14T19:18:42.729Z,100.0000